sensor_id;sensor_type;location;lat;lon;timestamp;P1;durP1;ratioP1;P2;durP2;ratioP2
53781;SDS011;39692;53.114;7.060;2022-08-25T00:05:35;5.93;;;4.72;;
53781;SDS011;39692;53.114;7.060;2022-08-25T00:08:01;9.20;;;5.03;;
53781;SDS011;39692;53.114;7.060;2022-08-25T00:10:30;8.90;;;4.95;;
53781;SDS011;39692;53.114;7.060;2022-08-25T00:12:57;7.53;;;4.78;;
53781;SDS011;39692;53.114;7.060;2022-08-25T00:15:23;7.60;;;4.45;;
53781;SDS011;39692;53.114;7.060;2022-08-25T00:17:49;10.80;;;5.10;;
53781;SDS011;39692;53.114;7.060;2022-08-25T00:20:16;10.13;;;4.65;;
53781;SDS011;39692;53.114;7.060;2022-08-25T00:22:42;7.05;;;4.63;;
53781;SDS011;39692;53.114;7.060;2022-08-25T00:25:08;6.47;;;4.80;;
53781;SDS011;39692;53.114;7.060;2022-08-25T00:27:33;7.82;;;5.22;;
53781;SDS011;39692;53.114;7.060;2022-08-25T00:29:59;9.38;;;4.60;;
53781;SDS011;39692;53.114;7.060;2022-08-25T00:32:25;8.30;;;5.07;;
53781;SDS011;39692;53.114;7.060;2022-08-25T00:34:51;7.53;;;5.05;;
53781;SDS011;39692;53.114;7.060;2022-08-25T00:37:17;6.35;;;5.03;;
53781;SDS011;39692;53.114;7.060;2022-08-25T00:39:43;6.18;;;5.40;;
53781;SDS011;39692;53.114;7.060;2022-08-25T00:42:10;6.22;;;5.10;;
53781;SDS011;39692;53.114;7.060;2022-08-25T00:44:36;9.07;;;5.00;;
53781;SDS011;39692;53.114;7.060;2022-08-25T00:47:04;7.45;;;5.18;;
53781;SDS011;39692;53.114;7.060;2022-08-25T00:55:04;7.82;;;4.88;;
53781;SDS011;39692;53.114;7.060;2022-08-25T01:00:24;8.48;;;4.97;;
53781;SDS011;39692;53.114;7.060;2022-08-25T01:02:59;5.70;;;4.80;;
53781;SDS011;39692;53.114;7.060;2022-08-25T01:05:25;11.60;;;4.90;;
53781;SDS011;39692;53.114;7.060;2022-08-25T01:07:55;9.13;;;4.70;;
53781;SDS011;39692;53.114;7.060;2022-08-25T01:10:22;6.35;;;5.00;;
53781;SDS011;39692;53.114;7.060;2022-08-25T01:12:49;7.28;;;4.93;;
53781;SDS011;39692;53.114;7.060;2022-08-25T01:15:18;8.43;;;5.10;;
53781;SDS011;39692;53.114;7.060;2022-08-25T01:17:50;7.22;;;5.25;;
53781;SDS011;39692;53.114;7.060;2022-08-25T01:20:18;7.95;;;5.45;;
53781;SDS011;39692;53.114;7.060;2022-08-25T01:22:46;6.55;;;5.47;;
53781;SDS011;39692;53.114;7.060;2022-08-25T01:28:24;8.23;;;4.85;;
53781;SDS011;39692;53.114;7.060;2022-08-25T01:30:50;10.35;;;5.40;;
53781;SDS011;39692;53.114;7.060;2022-08-25T01:33:16;11.20;;;4.97;;
53781;SDS011;39692;53.114;7.060;2022-08-25T01:35:43;7.07;;;4.95;;
53781;SDS011;39692;53.114;7.060;2022-08-25T01:38:09;8.27;;;4.63;;
53781;SDS011;39692;53.114;7.060;2022-08-25T01:40:36;7.45;;;5.05;;
53781;SDS011;39692;53.114;7.060;2022-08-25T01:45:36;5.70;;;4.40;;
53781;SDS011;39692;53.114;7.060;2022-08-25T01:48:03;8.77;;;5.10;;
53781;SDS011;39692;53.114;7.060;2022-08-25T01:50:30;8.23;;;5.22;;
53781;SDS011;39692;53.114;7.060;2022-08-25T01:55:31;8.38;;;5.15;;
53781;SDS011;39692;53.114;7.060;2022-08-25T01:58:25;7.75;;;4.80;;
53781;SDS011;39692;53.114;7.060;2022-08-25T02:00:54;6.82;;;4.85;;
53781;SDS011;39692;53.114;7.060;2022-08-25T02:03:22;8.25;;;4.80;;
53781;SDS011;39692;53.114;7.060;2022-08-25T02:05:49;8.23;;;4.75;;
53781;SDS011;39692;53.114;7.060;2022-08-25T02:08:16;6.28;;;5.00;;
53781;SDS011;39692;53.114;7.060;2022-08-25T02:10:42;8.02;;;5.32;;
53781;SDS011;39692;53.114;7.060;2022-08-25T02:13:08;7.82;;;5.07;;
53781;SDS011;39692;53.114;7.060;2022-08-25T02:15:34;6.90;;;4.78;;
53781;SDS011;39692;53.114;7.060;2022-08-25T02:18:04;7.35;;;5.15;;
53781;SDS011;39692;53.114;7.060;2022-08-25T02:20:29;10.60;;;5.45;;
53781;SDS011;39692;53.114;7.060;2022-08-25T02:22:55;7.72;;;5.20;;
53781;SDS011;39692;53.114;7.060;2022-08-25T02:25:21;8.50;;;5.18;;
53781;SDS011;39692;53.114;7.060;2022-08-25T02:27:46;7.55;;;5.13;;
53781;SDS011;39692;53.114;7.060;2022-08-25T02:30:13;6.57;;;5.30;;
53781;SDS011;39692;53.114;7.060;2022-08-25T02:32:39;7.95;;;5.65;;
53781;SDS011;39692;53.114;7.060;2022-08-25T02:35:06;7.90;;;5.10;;
53781;SDS011;39692;53.114;7.060;2022-08-25T02:37:32;11.98;;;5.68;;
53781;SDS011;39692;53.114;7.060;2022-08-25T02:39:58;7.82;;;5.32;;
53781;SDS011;39692;53.114;7.060;2022-08-25T02:42:24;8.38;;;5.10;;
53781;SDS011;39692;53.114;7.060;2022-08-25T02:44:51;6.47;;;4.72;;
53781;SDS011;39692;53.114;7.060;2022-08-25T02:47:17;9.25;;;5.50;;
53781;SDS011;39692;53.114;7.060;2022-08-25T02:49:43;6.95;;;4.90;;
53781;SDS011;39692;53.114;7.060;2022-08-25T02:52:09;7.32;;;5.10;;
53781;SDS011;39692;53.114;7.060;2022-08-25T02:54:35;7.65;;;5.40;;
53781;SDS011;39692;53.114;7.060;2022-08-25T02:57:00;7.10;;;5.22;;
53781;SDS011;39692;53.114;7.060;2022-08-25T02:59:26;8.10;;;5.30;;
53781;SDS011;39692;53.114;7.060;2022-08-25T03:01:52;8.57;;;5.25;;
53781;SDS011;39692;53.114;7.060;2022-08-25T03:04:18;7.15;;;5.22;;
53781;SDS011;39692;53.114;7.060;2022-08-25T03:06:44;8.27;;;5.10;;
53781;SDS011;39692;53.114;7.060;2022-08-25T03:09:10;8.02;;;5.28;;
53781;SDS011;39692;53.114;7.060;2022-08-25T03:11:36;6.95;;;5.40;;
53781;SDS011;39692;53.114;7.060;2022-08-25T03:14:03;7.60;;;5.55;;
53781;SDS011;39692;53.114;7.060;2022-08-25T03:16:33;6.82;;;5.15;;
53781;SDS011;39692;53.114;7.060;2022-08-25T03:19:00;7.10;;;5.35;;
53781;SDS011;39692;53.114;7.060;2022-08-25T03:21:26;9.35;;;6.18;;
53781;SDS011;39692;53.114;7.060;2022-08-25T03:23:53;8.30;;;5.72;;
53781;SDS011;39692;53.114;7.060;2022-08-25T03:26:19;7.93;;;5.63;;
53781;SDS011;39692;53.114;7.060;2022-08-25T03:29:04;9.07;;;6.10;;
53781;SDS011;39692;53.114;7.060;2022-08-25T03:31:30;11.55;;;6.18;;
53781;SDS011;39692;53.114;7.060;2022-08-25T03:33:57;8.00;;;6.03;;
53781;SDS011;39692;53.114;7.060;2022-08-25T03:36:23;10.13;;;5.63;;
53781;SDS011;39692;53.114;7.060;2022-08-25T03:38:50;7.57;;;5.97;;
53781;SDS011;39692;53.114;7.060;2022-08-25T03:41:20;8.23;;;6.03;;
53781;SDS011;39692;53.114;7.060;2022-08-25T03:43:48;7.68;;;6.45;;
53781;SDS011;39692;53.114;7.060;2022-08-25T03:46:16;12.38;;;6.18;;
53781;SDS011;39692;53.114;7.060;2022-08-25T03:48:43;9.70;;;6.82;;
53781;SDS011;39692;53.114;7.060;2022-08-25T03:51:09;9.55;;;6.47;;
53781;SDS011;39692;53.114;7.060;2022-08-25T03:53:35;9.55;;;6.68;;
53781;SDS011;39692;53.114;7.060;2022-08-25T03:56:00;10.30;;;6.22;;
53781;SDS011;39692;53.114;7.060;2022-08-25T03:58:26;10.15;;;6.85;;
53781;SDS011;39692;53.114;7.060;2022-08-25T04:00:52;8.15;;;7.00;;
53781;SDS011;39692;53.114;7.060;2022-08-25T04:03:18;8.98;;;6.68;;
53781;SDS011;39692;53.114;7.060;2022-08-25T04:05:44;11.85;;;6.55;;
53781;SDS011;39692;53.114;7.060;2022-08-25T04:08:10;8.63;;;6.75;;
53781;SDS011;39692;53.114;7.060;2022-08-25T04:10:36;10.43;;;6.32;;
53781;SDS011;39692;53.114;7.060;2022-08-25T04:13:02;8.18;;;6.95;;
53781;SDS011;39692;53.114;7.060;2022-08-25T04:15:28;9.73;;;7.57;;
53781;SDS011;39692;53.114;7.060;2022-08-25T04:17:53;10.35;;;6.75;;
53781;SDS011;39692;53.114;7.060;2022-08-25T04:20:19;11.07;;;7.25;;
53781;SDS011;39692;53.114;7.060;2022-08-25T04:22:45;11.65;;;7.47;;
53781;SDS011;39692;53.114;7.060;2022-08-25T04:25:11;8.98;;;7.32;;
53781;SDS011;39692;53.114;7.060;2022-08-25T04:27:36;9.05;;;7.00;;
53781;SDS011;39692;53.114;7.060;2022-08-25T04:30:03;9.88;;;7.15;;
53781;SDS011;39692;53.114;7.060;2022-08-25T04:32:30;9.80;;;6.93;;
53781;SDS011;39692;53.114;7.060;2022-08-25T04:34:56;9.35;;;7.30;;
53781;SDS011;39692;53.114;7.060;2022-08-25T04:37:22;8.98;;;7.85;;
53781;SDS011;39692;53.114;7.060;2022-08-25T04:39:48;16.55;;;8.75;;
53781;SDS011;39692;53.114;7.060;2022-08-25T04:42:13;9.05;;;7.05;;
53781;SDS011;39692;53.114;7.060;2022-08-25T04:44:39;9.35;;;7.50;;
53781;SDS011;39692;53.114;7.060;2022-08-25T04:47:05;10.32;;;7.22;;
53781;SDS011;39692;53.114;7.060;2022-08-25T04:49:31;11.45;;;7.38;;
53781;SDS011;39692;53.114;7.060;2022-08-25T04:51:57;8.75;;;7.63;;
53781;SDS011;39692;53.114;7.060;2022-08-25T04:54:23;9.70;;;7.25;;
53781;SDS011;39692;53.114;7.060;2022-08-25T04:56:49;9.93;;;7.60;;
53781;SDS011;39692;53.114;7.060;2022-08-25T04:59:17;10.05;;;6.88;;
53781;SDS011;39692;53.114;7.060;2022-08-25T05:01:43;11.50;;;7.20;;
53781;SDS011;39692;53.114;7.060;2022-08-25T05:04:10;11.23;;;7.22;;
53781;SDS011;39692;53.114;7.060;2022-08-25T05:06:38;8.50;;;6.53;;
53781;SDS011;39692;53.114;7.060;2022-08-25T05:09:05;8.20;;;6.82;;
53781;SDS011;39692;53.114;7.060;2022-08-25T05:11:31;10.52;;;7.40;;
53781;SDS011;39692;53.114;7.060;2022-08-25T05:13:58;11.45;;;7.47;;
53781;SDS011;39692;53.114;7.060;2022-08-25T05:16:25;11.43;;;7.72;;
53781;SDS011;39692;53.114;7.060;2022-08-25T05:18:51;11.02;;;7.82;;
53781;SDS011;39692;53.114;7.060;2022-08-25T05:21:19;9.13;;;7.60;;
53781;SDS011;39692;53.114;7.060;2022-08-25T05:23:47;10.77;;;7.68;;
53781;SDS011;39692;53.114;7.060;2022-08-25T05:26:18;12.30;;;7.65;;
53781;SDS011;39692;53.114;7.060;2022-08-25T05:28:45;12.27;;;7.45;;
53781;SDS011;39692;53.114;7.060;2022-08-25T05:31:13;10.52;;;7.10;;
53781;SDS011;39692;53.114;7.060;2022-08-25T05:33:39;11.65;;;8.00;;
53781;SDS011;39692;53.114;7.060;2022-08-25T05:36:05;13.45;;;8.13;;
53781;SDS011;39692;53.114;7.060;2022-08-25T05:38:33;8.75;;;7.38;;
53781;SDS011;39692;53.114;7.060;2022-08-25T05:41:03;13.68;;;8.30;;
53781;SDS011;39692;53.114;7.060;2022-08-25T05:43:31;11.23;;;7.97;;
53781;SDS011;39692;53.114;7.060;2022-08-25T05:45:57;12.25;;;7.68;;
53781;SDS011;39692;53.114;7.060;2022-08-25T05:48:24;10.52;;;7.70;;
53781;SDS011;39692;53.114;7.060;2022-08-25T05:50:55;11.38;;;8.05;;
53781;SDS011;39692;53.114;7.060;2022-08-25T05:53:22;11.63;;;8.18;;
53781;SDS011;39692;53.114;7.060;2022-08-25T05:55:49;10.77;;;8.55;;
53781;SDS011;39692;53.114;7.060;2022-08-25T05:58:16;15.07;;;8.82;;
53781;SDS011;39692;53.114;7.060;2022-08-25T06:00:42;10.63;;;9.10;;
53781;SDS011;39692;53.114;7.060;2022-08-25T06:03:08;12.00;;;8.70;;
53781;SDS011;39692;53.114;7.060;2022-08-25T06:05:34;11.85;;;9.40;;
53781;SDS011;39692;53.114;7.060;2022-08-25T06:08:00;10.63;;;8.30;;
53781;SDS011;39692;53.114;7.060;2022-08-25T06:10:26;10.18;;;9.00;;
53781;SDS011;39692;53.114;7.060;2022-08-25T06:12:55;11.07;;;9.25;;
53781;SDS011;39692;53.114;7.060;2022-08-25T06:15:22;11.85;;;9.30;;
53781;SDS011;39692;53.114;7.060;2022-08-25T06:17:49;10.75;;;9.18;;
53781;SDS011;39692;53.114;7.060;2022-08-25T06:20:20;12.98;;;9.40;;
53781;SDS011;39692;53.114;7.060;2022-08-25T06:22:47;13.57;;;9.68;;
53781;SDS011;39692;53.114;7.060;2022-08-25T06:25:14;12.30;;;10.05;;
53781;SDS011;39692;53.114;7.060;2022-08-25T06:27:42;11.95;;;10.25;;
53781;SDS011;39692;53.114;7.060;2022-08-25T06:30:10;12.25;;;10.13;;
53781;SDS011;39692;53.114;7.060;2022-08-25T06:32:39;12.00;;;9.85;;
53781;SDS011;39692;53.114;7.060;2022-08-25T06:35:07;14.95;;;10.30;;
53781;SDS011;39692;53.114;7.060;2022-08-25T06:37:36;13.48;;;10.10;;
53781;SDS011;39692;53.114;7.060;2022-08-25T06:40:02;11.82;;;10.23;;
53781;SDS011;39692;53.114;7.060;2022-08-25T06:42:29;12.05;;;9.73;;
53781;SDS011;39692;53.114;7.060;2022-08-25T06:44:55;12.45;;;9.50;;
53781;SDS011;39692;53.114;7.060;2022-08-25T06:47:20;12.98;;;9.35;;
53781;SDS011;39692;53.114;7.060;2022-08-25T06:49:46;11.82;;;8.60;;
53781;SDS011;39692;53.114;7.060;2022-08-25T06:52:12;11.65;;;8.95;;
53781;SDS011;39692;53.114;7.060;2022-08-25T06:54:39;11.07;;;7.85;;
53781;SDS011;39692;53.114;7.060;2022-08-25T06:57:05;11.52;;;7.95;;
53781;SDS011;39692;53.114;7.060;2022-08-25T06:59:31;11.82;;;8.25;;
53781;SDS011;39692;53.114;7.060;2022-08-25T07:01:58;11.38;;;9.27;;
53781;SDS011;39692;53.114;7.060;2022-08-25T07:04:24;12.18;;;8.20;;
53781;SDS011;39692;53.114;7.060;2022-08-25T07:06:50;10.77;;;7.80;;
53781;SDS011;39692;53.114;7.060;2022-08-25T07:09:17;8.40;;;7.55;;
53781;SDS011;39692;53.114;7.060;2022-08-25T07:11:43;9.40;;;8.13;;
53781;SDS011;39692;53.114;7.060;2022-08-25T07:14:10;13.05;;;8.02;;
53781;SDS011;39692;53.114;7.060;2022-08-25T07:16:38;9.52;;;7.53;;
53781;SDS011;39692;53.114;7.060;2022-08-25T07:19:05;13.25;;;7.43;;
53781;SDS011;39692;53.114;7.060;2022-08-25T07:21:33;8.07;;;6.38;;
53781;SDS011;39692;53.114;7.060;2022-08-25T07:24:00;9.15;;;6.40;;
53781;SDS011;39692;53.114;7.060;2022-08-25T07:26:30;9.15;;;6.18;;
53781;SDS011;39692;53.114;7.060;2022-08-25T07:28:59;8.95;;;6.65;;
53781;SDS011;39692;53.114;7.060;2022-08-25T07:31:25;7.78;;;6.00;;
53781;SDS011;39692;53.114;7.060;2022-08-25T07:33:52;10.32;;;6.32;;
53781;SDS011;39692;53.114;7.060;2022-08-25T07:39:02;6.93;;;6.10;;
53781;SDS011;39692;53.114;7.060;2022-08-25T07:41:30;8.48;;;6.28;;
53781;SDS011;39692;53.114;7.060;2022-08-25T07:43:59;9.55;;;6.10;;
53781;SDS011;39692;53.114;7.060;2022-08-25T07:46:25;8.38;;;5.65;;
53781;SDS011;39692;53.114;7.060;2022-08-25T07:48:51;9.90;;;6.22;;
53781;SDS011;39692;53.114;7.060;2022-08-25T07:51:16;7.32;;;5.30;;
53781;SDS011;39692;53.114;7.060;2022-08-25T07:53:42;7.47;;;5.70;;
53781;SDS011;39692;53.114;7.060;2022-08-25T07:56:12;9.25;;;6.05;;
53781;SDS011;39692;53.114;7.060;2022-08-25T07:58:40;7.55;;;6.03;;
53781;SDS011;39692;53.114;7.060;2022-08-25T08:01:11;8.88;;;6.20;;
53781;SDS011;39692;53.114;7.060;2022-08-25T08:03:39;8.15;;;5.65;;
53781;SDS011;39692;53.114;7.060;2022-08-25T08:06:07;8.45;;;4.90;;
53781;SDS011;39692;53.114;7.060;2022-08-25T08:08:41;7.25;;;5.43;;
53781;SDS011;39692;53.114;7.060;2022-08-25T08:11:15;7.60;;;5.93;;
53781;SDS011;39692;53.114;7.060;2022-08-25T08:13:50;10.48;;;5.80;;
53781;SDS011;39692;53.114;7.060;2022-08-25T08:16:18;7.82;;;5.40;;
53781;SDS011;39692;53.114;7.060;2022-08-25T08:18:45;9.85;;;5.55;;
53781;SDS011;39692;53.114;7.060;2022-08-25T08:21:13;7.75;;;5.50;;
53781;SDS011;39692;53.114;7.060;2022-08-25T08:23:47;8.90;;;5.45;;
53781;SDS011;39692;53.114;7.060;2022-08-25T08:26:13;8.10;;;5.10;;
53781;SDS011;39692;53.114;7.060;2022-08-25T08:28:39;7.35;;;5.22;;
53781;SDS011;39692;53.114;7.060;2022-08-25T08:31:05;6.95;;;5.45;;
53781;SDS011;39692;53.114;7.060;2022-08-25T08:33:30;10.47;;;5.43;;
53781;SDS011;39692;53.114;7.060;2022-08-25T08:35:58;7.03;;;5.40;;
53781;SDS011;39692;53.114;7.060;2022-08-25T08:38:29;8.15;;;5.55;;
53781;SDS011;39692;53.114;7.060;2022-08-25T08:41:13;8.90;;;5.60;;
53781;SDS011;39692;53.114;7.060;2022-08-25T08:44:25;7.43;;;5.10;;
53781;SDS011;39692;53.114;7.060;2022-08-25T08:52:17;8.05;;;5.70;;
53781;SDS011;39692;53.114;7.060;2022-08-25T08:54:55;6.32;;;5.22;;
53781;SDS011;39692;53.114;7.060;2022-08-25T08:57:26;5.03;;;4.32;;
53781;SDS011;39692;53.114;7.060;2022-08-25T08:59:57;9.00;;;5.60;;
53781;SDS011;39692;53.114;7.060;2022-08-25T09:02:27;8.20;;;5.28;;
53781;SDS011;39692;53.114;7.060;2022-08-25T09:05:00;8.25;;;6.10;;
53781;SDS011;39692;53.114;7.060;2022-08-25T09:07:53;6.70;;;5.72;;
53781;SDS011;39692;53.114;7.060;2022-08-25T09:10:19;7.57;;;5.55;;
53781;SDS011;39692;53.114;7.060;2022-08-25T09:15:40;8.93;;;5.57;;
53781;SDS011;39692;53.114;7.060;2022-08-25T09:23:56;8.55;;;4.82;;
53781;SDS011;39692;53.114;7.060;2022-08-25T09:26:36;7.65;;;4.95;;
53781;SDS011;39692;53.114;7.060;2022-08-25T09:29:11;6.28;;;4.78;;
53781;SDS011;39692;53.114;7.060;2022-08-25T09:31:40;10.80;;;5.30;;
53781;SDS011;39692;53.114;7.060;2022-08-25T09:34:29;6.63;;;4.68;;
53781;SDS011;39692;53.114;7.060;2022-08-25T09:36:56;6.53;;;4.43;;
53781;SDS011;39692;53.114;7.060;2022-08-25T09:39:22;11.93;;;5.65;;
53781;SDS011;39692;53.114;7.060;2022-08-25T09:41:58;7.53;;;5.13;;
53781;SDS011;39692;53.114;7.060;2022-08-25T09:49:36;6.82;;;4.63;;
53781;SDS011;39692;53.114;7.060;2022-08-25T09:54:57;9.32;;;4.32;;
53781;SDS011;39692;53.114;7.060;2022-08-25T09:57:34;9.98;;;4.47;;
53781;SDS011;39692;53.114;7.060;2022-08-25T10:02:41;7.03;;;3.90;;
53781;SDS011;39692;53.114;7.060;2022-08-25T10:05:19;5.40;;;4.05;;
53781;SDS011;39692;53.114;7.060;2022-08-25T10:07:48;6.80;;;3.95;;
53781;SDS011;39692;53.114;7.060;2022-08-25T10:10:22;13.13;;;4.70;;
53781;SDS011;39692;53.114;7.060;2022-08-25T10:12:54;5.22;;;3.83;;
53781;SDS011;39692;53.114;7.060;2022-08-25T10:15:24;6.50;;;4.10;;
53781;SDS011;39692;53.114;7.060;2022-08-25T10:18:02;10.00;;;4.30;;
53781;SDS011;39692;53.114;7.060;2022-08-25T10:23:31;5.93;;;4.05;;
53781;SDS011;39692;53.114;7.060;2022-08-25T10:26:03;6.20;;;4.40;;
53781;SDS011;39692;53.114;7.060;2022-08-25T10:31:22;7.13;;;3.83;;
53781;SDS011;39692;53.114;7.060;2022-08-25T10:36:55;5.45;;;3.88;;
53781;SDS011;39692;53.114;7.060;2022-08-25T10:39:45;6.78;;;3.90;;
53781;SDS011;39692;53.114;7.060;2022-08-25T10:45:02;6.10;;;4.05;;
53781;SDS011;39692;53.114;7.060;2022-08-25T10:47:59;6.97;;;3.67;;
53781;SDS011;39692;53.114;7.060;2022-08-25T10:50:42;6.95;;;3.72;;
53781;SDS011;39692;53.114;7.060;2022-08-25T10:53:39;6.20;;;3.30;;
53781;SDS011;39692;53.114;7.060;2022-08-25T11:04:04;8.10;;;3.88;;
53781;SDS011;39692;53.114;7.060;2022-08-25T11:09:09;17.17;;;4.13;;
53781;SDS011;39692;53.114;7.060;2022-08-25T11:11:54;51.17;;;6.15;;
53781;SDS011;39692;53.114;7.060;2022-08-25T11:14:34;5.18;;;3.67;;
53781;SDS011;39692;53.114;7.060;2022-08-25T11:17:09;4.32;;;3.30;;
53781;SDS011;39692;53.114;7.060;2022-08-25T11:19:44;6.32;;;3.33;;
53781;SDS011;39692;53.114;7.060;2022-08-25T11:27:34;5.43;;;3.55;;
53781;SDS011;39692;53.114;7.060;2022-08-25T11:30:07;8.50;;;3.60;;
53781;SDS011;39692;53.114;7.060;2022-08-25T11:32:38;10.15;;;3.90;;
53781;SDS011;39692;53.114;7.060;2022-08-25T11:35:09;5.35;;;3.50;;
53781;SDS011;39692;53.114;7.060;2022-08-25T11:40:49;4.47;;;3.63;;
53781;SDS011;39692;53.114;7.060;2022-08-25T11:51:54;6.75;;;3.58;;
53781;SDS011;39692;53.114;7.060;2022-08-25T12:02:48;8.82;;;4.28;;
53781;SDS011;39692;53.114;7.060;2022-08-25T12:13:49;29.15;;;4.97;;
53781;SDS011;39692;53.114;7.060;2022-08-25T12:19:21;17.60;;;4.57;;
53781;SDS011;39692;53.114;7.060;2022-08-25T12:24:56;9.82;;;3.95;;
53781;SDS011;39692;53.114;7.060;2022-08-25T12:30:20;7.70;;;3.45;;
53781;SDS011;39692;53.114;7.060;2022-08-25T12:35:32;4.72;;;3.35;;
53781;SDS011;39692;53.114;7.060;2022-08-25T12:38:09;5.68;;;3.58;;
53781;SDS011;39692;53.114;7.060;2022-08-25T12:45:48;6.82;;;3.85;;
53781;SDS011;39692;53.114;7.060;2022-08-25T12:51:00;4.18;;;3.10;;
53781;SDS011;39692;53.114;7.060;2022-08-25T13:01:30;4.90;;;4.07;;
53781;SDS011;39692;53.114;7.060;2022-08-25T13:15:39;5.18;;;3.83;;
53781;SDS011;39692;53.114;7.060;2022-08-25T13:18:27;5.72;;;3.95;;
53781;SDS011;39692;53.114;7.060;2022-08-25T13:23:41;6.72;;;4.15;;
53781;SDS011;39692;53.114;7.060;2022-08-25T13:26:16;8.43;;;4.32;;
53781;SDS011;39692;53.114;7.060;2022-08-25T13:28:52;5.00;;;4.28;;
53781;SDS011;39692;53.114;7.060;2022-08-25T13:31:23;9.63;;;4.18;;
53781;SDS011;39692;53.114;7.060;2022-08-25T13:36:22;7.40;;;4.55;;
53781;SDS011;39692;53.114;7.060;2022-08-25T13:39:11;6.95;;;4.30;;
53781;SDS011;39692;53.114;7.060;2022-08-25T13:41:37;9.02;;;4.47;;
53781;SDS011;39692;53.114;7.060;2022-08-25T13:44:11;5.22;;;3.90;;
53781;SDS011;39692;53.114;7.060;2022-08-25T13:46:37;6.25;;;3.80;;
53781;SDS011;39692;53.114;7.060;2022-08-25T13:49:03;9.43;;;3.90;;
53781;SDS011;39692;53.114;7.060;2022-08-25T13:51:31;7.90;;;3.60;;
53781;SDS011;39692;53.114;7.060;2022-08-25T13:54:07;4.70;;;3.50;;
53781;SDS011;39692;53.114;7.060;2022-08-25T13:56:45;5.43;;;3.33;;
53781;SDS011;39692;53.114;7.060;2022-08-25T13:59:18;5.93;;;3.65;;
53781;SDS011;39692;53.114;7.060;2022-08-25T14:01:54;5.28;;;3.63;;
53781;SDS011;39692;53.114;7.060;2022-08-25T14:04:25;6.07;;;3.67;;
53781;SDS011;39692;53.114;7.060;2022-08-25T14:07:06;5.32;;;3.40;;
53781;SDS011;39692;53.114;7.060;2022-08-25T14:09:38;5.57;;;3.67;;
53781;SDS011;39692;53.114;7.060;2022-08-25T14:12:24;4.90;;;3.72;;
53781;SDS011;39692;53.114;7.060;2022-08-25T14:14:59;4.68;;;3.40;;
53781;SDS011;39692;53.114;7.060;2022-08-25T14:17:59;5.93;;;3.25;;
53781;SDS011;39692;53.114;7.060;2022-08-25T14:20:49;4.70;;;3.38;;
53781;SDS011;39692;53.114;7.060;2022-08-25T14:23:18;5.72;;;3.70;;
53781;SDS011;39692;53.114;7.060;2022-08-25T14:25:48;6.97;;;3.97;;
53781;SDS011;39692;53.114;7.060;2022-08-25T14:28:19;6.38;;;3.47;;
53781;SDS011;39692;53.114;7.060;2022-08-25T14:30:50;8.07;;;4.30;;
53781;SDS011;39692;53.114;7.060;2022-08-25T14:33:29;5.43;;;3.75;;
53781;SDS011;39692;53.114;7.060;2022-08-25T14:36:22;5.72;;;3.83;;
53781;SDS011;39692;53.114;7.060;2022-08-25T14:38:48;6.82;;;3.83;;
53781;SDS011;39692;53.114;7.060;2022-08-25T14:41:14;8.30;;;4.30;;
53781;SDS011;39692;53.114;7.060;2022-08-25T14:43:40;6.75;;;4.18;;
53781;SDS011;39692;53.114;7.060;2022-08-25T14:46:08;10.10;;;4.32;;
53781;SDS011;39692;53.114;7.060;2022-08-25T14:48:42;5.18;;;4.10;;
53781;SDS011;39692;53.114;7.060;2022-08-25T14:51:11;10.70;;;4.65;;
53781;SDS011;39692;53.114;7.060;2022-08-25T14:53:39;6.18;;;3.75;;
53781;SDS011;39692;53.114;7.060;2022-08-25T14:56:06;10.25;;;4.38;;
53781;SDS011;39692;53.114;7.060;2022-08-25T14:58:31;4.93;;;4.28;;
53781;SDS011;39692;53.114;7.060;2022-08-25T15:00:57;5.10;;;3.67;;
53781;SDS011;39692;53.114;7.060;2022-08-25T15:03:28;6.07;;;4.22;;
53781;SDS011;39692;53.114;7.060;2022-08-25T15:05:58;5.80;;;4.30;;
53781;SDS011;39692;53.114;7.060;2022-08-25T15:08:24;5.60;;;3.80;;
53781;SDS011;39692;53.114;7.060;2022-08-25T15:11:09;6.57;;;4.13;;
53781;SDS011;39692;53.114;7.060;2022-08-25T15:13:35;7.35;;;4.28;;
53781;SDS011;39692;53.114;7.060;2022-08-25T15:16:01;8.65;;;4.78;;
53781;SDS011;39692;53.114;7.060;2022-08-25T15:18:27;6.05;;;4.70;;
53781;SDS011;39692;53.114;7.060;2022-08-25T15:20:53;8.30;;;4.45;;
53781;SDS011;39692;53.114;7.060;2022-08-25T15:23:19;6.63;;;4.28;;
53781;SDS011;39692;53.114;7.060;2022-08-25T15:25:45;7.78;;;3.92;;
53781;SDS011;39692;53.114;7.060;2022-08-25T15:28:13;6.03;;;4.72;;
53781;SDS011;39692;53.114;7.060;2022-08-25T15:30:40;7.43;;;4.95;;
53781;SDS011;39692;53.114;7.060;2022-08-25T15:33:06;7.50;;;4.28;;
53781;SDS011;39692;53.114;7.060;2022-08-25T15:35:32;7.03;;;4.03;;
53781;SDS011;39692;53.114;7.060;2022-08-25T15:37:58;6.70;;;4.95;;
53781;SDS011;39692;53.114;7.060;2022-08-25T15:40:25;5.75;;;4.55;;
53781;SDS011;39692;53.114;7.060;2022-08-25T15:42:52;8.02;;;4.88;;
53781;SDS011;39692;53.114;7.060;2022-08-25T15:45:18;7.68;;;4.68;;
53781;SDS011;39692;53.114;7.060;2022-08-25T15:47:44;6.25;;;4.43;;
53781;SDS011;39692;53.114;7.060;2022-08-25T15:50:12;6.63;;;5.10;;
53781;SDS011;39692;53.114;7.060;2022-08-25T15:52:42;7.45;;;4.85;;
53781;SDS011;39692;53.114;7.060;2022-08-25T15:55:08;9.85;;;4.32;;
53781;SDS011;39692;53.114;7.060;2022-08-25T15:57:35;7.07;;;5.05;;
53781;SDS011;39692;53.114;7.060;2022-08-25T16:00:02;11.77;;;5.20;;
53781;SDS011;39692;53.114;7.060;2022-08-25T16:02:33;7.90;;;4.93;;
53781;SDS011;39692;53.114;7.060;2022-08-25T16:04:59;6.60;;;4.43;;
53781;SDS011;39692;53.114;7.060;2022-08-25T16:07:26;7.80;;;4.80;;
53781;SDS011;39692;53.114;7.060;2022-08-25T16:09:54;7.57;;;5.20;;
53781;SDS011;39692;53.114;7.060;2022-08-25T16:12:20;5.82;;;4.78;;
53781;SDS011;39692;53.114;7.060;2022-08-25T16:14:47;8.38;;;5.13;;
53781;SDS011;39692;53.114;7.060;2022-08-25T16:17:12;6.00;;;4.95;;
53781;SDS011;39692;53.114;7.060;2022-08-25T16:19:38;7.10;;;4.95;;
53781;SDS011;39692;53.114;7.060;2022-08-25T16:22:04;7.03;;;4.53;;
53781;SDS011;39692;53.114;7.060;2022-08-25T16:24:30;6.97;;;5.30;;
53781;SDS011;39692;53.114;7.060;2022-08-25T16:26:56;8.13;;;5.30;;
53781;SDS011;39692;53.114;7.060;2022-08-25T16:29:29;10.35;;;5.10;;
53781;SDS011;39692;53.114;7.060;2022-08-25T16:31:56;7.05;;;5.22;;
53781;SDS011;39692;53.114;7.060;2022-08-25T16:34:22;15.90;;;5.88;;
53781;SDS011;39692;53.114;7.060;2022-08-25T16:36:48;8.60;;;5.30;;
53781;SDS011;39692;53.114;7.060;2022-08-25T16:39:14;6.55;;;5.32;;
53781;SDS011;39692;53.114;7.060;2022-08-25T16:41:40;7.95;;;5.63;;
53781;SDS011;39692;53.114;7.060;2022-08-25T16:44:06;8.18;;;5.25;;
53781;SDS011;39692;53.114;7.060;2022-08-25T16:46:32;9.13;;;5.30;;
53781;SDS011;39692;53.114;7.060;2022-08-25T16:48:59;7.50;;;4.95;;
53781;SDS011;39692;53.114;7.060;2022-08-25T16:51:26;7.63;;;4.95;;
53781;SDS011;39692;53.114;7.060;2022-08-25T16:53:52;8.45;;;5.57;;
53781;SDS011;39692;53.114;7.060;2022-08-25T16:56:37;7.90;;;6.45;;
53781;SDS011;39692;53.114;7.060;2022-08-25T16:59:06;10.25;;;5.53;;
53781;SDS011;39692;53.114;7.060;2022-08-25T17:01:36;7.72;;;5.20;;
53781;SDS011;39692;53.114;7.060;2022-08-25T17:04:03;7.72;;;5.97;;
53781;SDS011;39692;53.114;7.060;2022-08-25T17:06:31;9.50;;;5.82;;
53781;SDS011;39692;53.114;7.060;2022-08-25T17:08:59;11.50;;;5.50;;
53781;SDS011;39692;53.114;7.060;2022-08-25T17:11:30;8.30;;;5.80;;
53781;SDS011;39692;53.114;7.060;2022-08-25T17:14:00;9.38;;;6.00;;
53781;SDS011;39692;53.114;7.060;2022-08-25T17:16:29;8.20;;;5.95;;
53781;SDS011;39692;53.114;7.060;2022-08-25T17:18:56;7.30;;;5.50;;
53781;SDS011;39692;53.114;7.060;2022-08-25T17:21:24;11.93;;;5.60;;
53781;SDS011;39692;53.114;7.060;2022-08-25T17:23:54;7.97;;;5.85;;